Maran Pythia — SVAQ5 — position and weather

sailwx.info

Track history (hours):
 
Tides and Currents Weather Stations Pressure Air Temp Water Temp Dewpoint Dewpoint Depression Visibility Wind Speed Wind Dir Waves Ship Positions

Maran Pythia

Last reported at 2016-Aug-23 04:31 UTC. Time now 2016-Aug-26 03:14 UTC.
Position N 39°38' E 025°45'.

Length 275 m; draft 9.7 m.

Type: Ship. MMSI: 240893000.

Date/timePositionNaut miles runAvg speedWind from/ knotsBaromVisibWave heightAir tempDewpointWater temp
2016-Aug-23 04:31N 39°38' E 025°45'80 3.9
2016-Aug-22 08:07N 38°28' E 024°56'3910.9
2016-Aug-22 04:33N 37°52' E 024°36'10 9.7
2016-Aug-22 03:30N 37°42' E 024°34'19 9.7
2016-Aug-22 01:33N 37°27' E 024°19'1010.0
2016-Aug-22 00:33N 37°18' E 024°14'10 9.8
2016-Aug-21 23:33N 37°08' E 024°11'6310.2
2016-Aug-21 17:22N 36°23' E 023°16'287 7.0
2016-Aug-20 00:14N 39°53' E 019°06'2112.4
2016-Aug-19 22:33N 40°13' E 018°59'1212.3
2016-Aug-19 21:32N 40°25' E 018°54'26712.1
2016-Aug-18 23:33N 43°33' E 014°39'11112.3
2016-Aug-18 14:33N 45°03' E 013°09'9 9.1
2016-Aug-18 13:33N 45°11' E 013°02'11 9.4
2016-Aug-18 12:24N 45°22' E 012°59'6 7.7
2016-Aug-18 11:33N 45°28' E 013°04'  
2016-Aug-16 04:32N 45°37' E 013°44'2 0.2
2016-Aug-15 20:31N 45°38' E 013°42'0 0.0
2016-Aug-15 19:22N 45°38' E 013°42'0 0.0
2016-Aug-15 18:28N 45°38' E 013°42'0 0.0
2016-Aug-15 15:19N 45°38' E 013°42'0 0.0
2016-Aug-15 14:31N 45°38' E 013°42'0 0.0
2016-Aug-15 13:31N 45°38' E 013°42'0 0.0
2016-Aug-15 12:31N 45°38' E 013°42'0 0.0
2016-Aug-15 11:10N 45°38' E 013°42'0 0.0
2016-Aug-15 10:25N 45°38' E 013°42'0 0.1
2016-Aug-15 08:07N 45°38' E 013°42'0 0.0
2016-Aug-15 01:22N 45°38' E 013°42'0 0.0
2016-Aug-15 00:31N 45°38' E 013°42'0 0.0
2016-Aug-14 23:28N 45°38' E 013°42'0 0.1
2016-Aug-14 22:31N 45°38' E 013°42'0 0.0
2016-Aug-14 08:04N 45°38' E 013°42'0 0.0
2016-Aug-14 07:31N 45°38' E 013°42'0 0.0
2016-Aug-13 09:28N 45°38' E 013°42'0 0.1
2016-Aug-13 07:10N 45°38' E 013°42'  
Track history (hours):
 
Tides and Currents Weather Stations Pressure Air Temp Water Temp Dewpoint Dewpoint Depression Visibility Wind Speed Wind Dir Waves Ship Positions

Maran Pythia

Last reported at 2016-Aug-23 04:31 UTC. Time now 2016-Aug-26 03:14 UTC.
Position N 39°38' E 025°45'.

Length 275 m; draft 9.7 m.

Type: Ship. MMSI: 240893000.

Date/timePositionNaut miles runAvg speedWind from/ knotsBaromVisibWave heightAir tempDewpointWater temp
2016-Aug-23 04:31N 39°38' E 025°45'80 3.9
2016-Aug-22 08:07N 38°28' E 024°56'3910.9
2016-Aug-22 04:33N 37°52' E 024°36'10 9.7
2016-Aug-22 03:30N 37°42' E 024°34'19 9.7
2016-Aug-22 01:33N 37°27' E 024°19'1010.0
2016-Aug-22 00:33N 37°18' E 024°14'10 9.8
2016-Aug-21 23:33N 37°08' E 024°11'6310.2
2016-Aug-21 17:22N 36°23' E 023°16'287 7.0
2016-Aug-20 00:14N 39°53' E 019°06'2112.4
2016-Aug-19 22:33N 40°13' E 018°59'1212.3
2016-Aug-19 21:32N 40°25' E 018°54'26712.1
2016-Aug-18 23:33N 43°33' E 014°39'11112.3
2016-Aug-18 14:33N 45°03' E 013°09'9 9.1
2016-Aug-18 13:33N 45°11' E 013°02'11 9.4
2016-Aug-18 12:24N 45°22' E 012°59'6 7.7
2016-Aug-18 11:33N 45°28' E 013°04'  
2016-Aug-16 04:32N 45°37' E 013°44'2 0.2
2016-Aug-15 20:31N 45°38' E 013°42'0 0.0
2016-Aug-15 19:22N 45°38' E 013°42'0 0.0
2016-Aug-15 18:28N 45°38' E 013°42'0 0.0
2016-Aug-15 15:19N 45°38' E 013°42'0 0.0
2016-Aug-15 14:31N 45°38' E 013°42'0 0.0
2016-Aug-15 13:31N 45°38' E 013°42'0 0.0
2016-Aug-15 12:31N 45°38' E 013°42'0 0.0
2016-Aug-15 11:10N 45°38' E 013°42'0 0.0
2016-Aug-15 10:25N 45°38' E 013°42'0 0.1
2016-Aug-15 08:07N 45°38' E 013°42'0 0.0
2016-Aug-15 01:22N 45°38' E 013°42'0 0.0
2016-Aug-15 00:31N 45°38' E 013°42'0 0.0
2016-Aug-14 23:28N 45°38' E 013°42'0 0.1
2016-Aug-14 22:31N 45°38' E 013°42'0 0.0
2016-Aug-14 08:04N 45°38' E 013°42'0 0.0
2016-Aug-14 07:31N 45°38' E 013°42'0 0.0
2016-Aug-13 09:28N 45°38' E 013°42'0 0.1
2016-Aug-13 07:10N 45°38' E 013°42'  

Dump ship's entire track history